sensor_id;sensor_type;location;lat;lon;timestamp;P1;durP1;ratioP1;P2;durP2;ratioP2
18689;SDS011;9782;52.930;15.562;2023-04-21T04:51:28;12.13;;;8.00;;
18689;SDS011;9782;52.930;15.562;2023-04-21T04:53:56;13.47;;;8.17;;
18689;SDS011;9782;52.930;15.562;2023-04-21T04:56:23;9.87;;;7.43;;
18689;SDS011;9782;52.930;15.562;2023-04-21T04:58:50;9.63;;;6.90;;
18689;SDS011;9782;52.930;15.562;2023-04-21T05:01:17;11.57;;;7.50;;
18689;SDS011;9782;52.930;15.562;2023-04-21T05:03:44;14.73;;;7.90;;
18689;SDS011;9782;52.930;15.562;2023-04-21T05:06:11;11.97;;;7.70;;
18689;SDS011;9782;52.930;15.562;2023-04-21T05:11:15;11.23;;;7.33;;
18689;SDS011;9782;52.930;15.562;2023-04-21T05:13:41;14.90;;;8.30;;
18689;SDS011;9782;52.930;15.562;2023-04-21T05:16:08;11.57;;;7.63;;
18689;SDS011;9782;52.930;15.562;2023-04-21T05:18:35;10.37;;;7.40;;
18689;SDS011;9782;52.930;15.562;2023-04-21T05:21:02;11.00;;;7.23;;
18689;SDS011;9782;52.930;15.562;2023-04-21T05:23:29;9.97;;;7.93;;
18689;SDS011;9782;52.930;15.562;2023-04-21T05:25:56;13.93;;;7.50;;
18689;SDS011;9782;52.930;15.562;2023-04-21T05:28:24;12.53;;;7.27;;
18689;SDS011;9782;52.930;15.562;2023-04-21T05:30:54;12.30;;;7.43;;
18689;SDS011;9782;52.930;15.562;2023-04-21T05:33:23;13.37;;;7.90;;
18689;SDS011;9782;52.930;15.562;2023-04-21T05:35:54;10.93;;;7.17;;
18689;SDS011;9782;52.930;15.562;2023-04-21T05:38:21;11.30;;;7.80;;
18689;SDS011;9782;52.930;15.562;2023-04-21T05:40:51;11.70;;;7.50;;
18689;SDS011;9782;52.930;15.562;2023-04-21T05:43:19;11.23;;;7.30;;
18689;SDS011;9782;52.930;15.562;2023-04-21T05:45:47;10.53;;;6.67;;
18689;SDS011;9782;52.930;15.562;2023-04-21T05:48:14;13.53;;;8.00;;
18689;SDS011;9782;52.930;15.562;2023-04-21T05:50:41;11.37;;;6.90;;
18689;SDS011;9782;52.930;15.562;2023-04-21T05:53:08;9.00;;;7.10;;
18689;SDS011;9782;52.930;15.562;2023-04-21T05:55:35;9.63;;;7.57;;
18689;SDS011;9782;52.930;15.562;2023-04-21T05:58:03;11.43;;;7.37;;
18689;SDS011;9782;52.930;15.562;2023-04-21T06:00:30;9.80;;;7.50;;
18689;SDS011;9782;52.930;15.562;2023-04-21T06:02:58;11.43;;;7.17;;
18689;SDS011;9782;52.930;15.562;2023-04-21T06:05:25;9.03;;;7.00;;
18689;SDS011;9782;52.930;15.562;2023-04-21T06:07:52;10.10;;;7.17;;
18689;SDS011;9782;52.930;15.562;2023-04-21T06:10:19;11.83;;;7.20;;
18689;SDS011;9782;52.930;15.562;2023-04-21T06:12:46;8.70;;;6.80;;
18689;SDS011;9782;52.930;15.562;2023-04-21T06:15:13;10.07;;;7.20;;
18689;SDS011;9782;52.930;15.562;2023-04-21T06:17:40;10.03;;;7.07;;
18689;SDS011;9782;52.930;15.562;2023-04-21T06:20:09;11.93;;;6.50;;
18689;SDS011;9782;52.930;15.562;2023-04-21T06:25:07;10.40;;;7.03;;
18689;SDS011;9782;52.930;15.562;2023-04-21T06:27:34;10.03;;;7.37;;
18689;SDS011;9782;52.930;15.562;2023-04-21T06:30:01;12.13;;;6.93;;
18689;SDS011;9782;52.930;15.562;2023-04-21T06:40:14;11.17;;;6.77;;
18689;SDS011;9782;52.930;15.562;2023-04-21T06:45:16;10.50;;;7.30;;
18689;SDS011;9782;52.930;15.562;2023-04-21T06:50:19;8.73;;;6.63;;
18689;SDS011;9782;52.930;15.562;2023-04-21T06:52:45;10.20;;;6.23;;
18689;SDS011;9782;52.930;15.562;2023-04-21T06:55:12;10.87;;;6.30;;
18689;SDS011;9782;52.930;15.562;2023-04-21T06:57:41;10.70;;;6.57;;
18689;SDS011;9782;52.930;15.562;2023-04-21T07:00:08;7.63;;;6.23;;
18689;SDS011;9782;52.930;15.562;2023-04-21T07:02:36;8.60;;;6.53;;
18689;SDS011;9782;52.930;15.562;2023-04-21T07:05:03;10.83;;;6.43;;
18689;SDS011;9782;52.930;15.562;2023-04-21T07:07:30;9.50;;;5.80;;
18689;SDS011;9782;52.930;15.562;2023-04-21T07:09:57;9.67;;;6.33;;
18689;SDS011;9782;52.930;15.562;2023-04-21T07:12:26;10.87;;;6.17;;
18689;SDS011;9782;52.930;15.562;2023-04-21T07:14:53;10.27;;;6.93;;
18689;SDS011;9782;52.930;15.562;2023-04-21T07:17:20;9.10;;;6.50;;
18689;SDS011;9782;52.930;15.562;2023-04-21T07:19:48;7.57;;;6.10;;
18689;SDS011;9782;52.930;15.562;2023-04-21T07:22:15;9.00;;;6.53;;
18689;SDS011;9782;52.930;15.562;2023-04-21T07:24:42;7.27;;;5.70;;
18689;SDS011;9782;52.930;15.562;2023-04-21T07:27:09;8.77;;;6.00;;
18689;SDS011;9782;52.930;15.562;2023-04-21T07:29:37;8.03;;;5.63;;
18689;SDS011;9782;52.930;15.562;2023-04-21T07:55:24;8.52;;;5.40;;
18689;SDS011;9782;52.930;15.562;2023-04-21T08:26:21;6.68;;;4.95;;
18689;SDS011;9782;52.930;15.562;2023-04-21T08:28:49;7.15;;;5.00;;
18689;SDS011;9782;52.930;15.562;2023-04-21T08:31:16;7.20;;;4.80;;
18689;SDS011;9782;52.930;15.562;2023-04-21T08:33:56;8.80;;;4.95;;
18689;SDS011;9782;52.930;15.562;2023-04-21T08:39:00;5.95;;;4.35;;
18689;SDS011;9782;52.930;15.562;2023-04-21T08:46:40;7.78;;;4.50;;
18689;SDS011;9782;52.930;15.562;2023-04-21T10:35:11;8.18;;;3.78;;
18689;SDS011;9782;52.930;15.562;2023-04-21T10:48:07;6.75;;;3.63;;
18689;SDS011;9782;52.930;15.562;2023-04-21T10:50:40;5.25;;;3.28;;
18689;SDS011;9782;52.930;15.562;2023-04-21T10:53:09;5.10;;;3.05;;
18689;SDS011;9782;52.930;15.562;2023-04-21T10:55:36;3.88;;;3.00;;
18689;SDS011;9782;52.930;15.562;2023-04-21T10:58:06;6.22;;;3.20;;
18689;SDS011;9782;52.930;15.562;2023-04-21T11:00:34;3.92;;;2.80;;
18689;SDS011;9782;52.930;15.562;2023-04-21T11:03:03;7.28;;;3.17;;
18689;SDS011;9782;52.930;15.562;2023-04-21T11:05:33;4.53;;;3.10;;
18689;SDS011;9782;52.930;15.562;2023-04-21T11:08:07;3.60;;;2.95;;
18689;SDS011;9782;52.930;15.562;2023-04-21T11:10:43;5.00;;;2.83;;
18689;SDS011;9782;52.930;15.562;2023-04-21T11:13:15;3.40;;;2.60;;
18689;SDS011;9782;52.930;15.562;2023-04-21T11:20:49;4.40;;;2.90;;
18689;SDS011;9782;52.930;15.562;2023-04-21T11:23:18;4.03;;;2.88;;
18689;SDS011;9782;52.930;15.562;2023-04-21T11:25:45;5.38;;;2.90;;
18689;SDS011;9782;52.930;15.562;2023-04-21T11:28:12;5.13;;;3.15;;
18689;SDS011;9782;52.930;15.562;2023-04-21T11:30:46;6.00;;;2.80;;
18689;SDS011;9782;52.930;15.562;2023-04-21T11:33:13;5.57;;;3.10;;
18689;SDS011;9782;52.930;15.562;2023-04-21T11:35:39;4.68;;;2.83;;
18689;SDS011;9782;52.930;15.562;2023-04-21T11:38:06;4.72;;;3.15;;
18689;SDS011;9782;52.930;15.562;2023-04-21T11:40:44;5.78;;;3.00;;
18689;SDS011;9782;52.930;15.562;2023-04-21T11:43:12;3.88;;;3.03;;
18689;SDS011;9782;52.930;15.562;2023-04-21T11:45:39;6.82;;;2.92;;
18689;SDS011;9782;52.930;15.562;2023-04-21T11:48:12;5.35;;;3.15;;
18689;SDS011;9782;52.930;15.562;2023-04-21T11:50:39;4.90;;;2.78;;
18689;SDS011;9782;52.930;15.562;2023-04-21T11:53:12;5.78;;;3.05;;
18689;SDS011;9782;52.930;15.562;2023-04-21T11:55:40;5.20;;;2.67;;
18689;SDS011;9782;52.930;15.562;2023-04-21T11:58:09;5.72;;;2.63;;
18689;SDS011;9782;52.930;15.562;2023-04-21T12:00:40;3.55;;;2.80;;
18689;SDS011;9782;52.930;15.562;2023-04-21T12:03:10;5.53;;;2.80;;
18689;SDS011;9782;52.930;15.562;2023-04-21T12:05:40;5.93;;;2.55;;
18689;SDS011;9782;52.930;15.562;2023-04-21T12:08:18;4.45;;;2.67;;
18689;SDS011;9782;52.930;15.562;2023-04-21T12:10:47;2.92;;;2.53;;
18689;SDS011;9782;52.930;15.562;2023-04-21T12:13:22;4.00;;;2.60;;
18689;SDS011;9782;52.930;15.562;2023-04-21T12:15:49;3.30;;;2.63;;
18689;SDS011;9782;52.930;15.562;2023-04-21T12:18:23;4.90;;;2.80;;
18689;SDS011;9782;52.930;15.562;2023-04-21T12:21:15;4.63;;;2.97;;
18689;SDS011;9782;52.930;15.562;2023-04-21T12:23:42;3.97;;;2.60;;
18689;SDS011;9782;52.930;15.562;2023-04-21T12:26:10;5.40;;;2.70;;
18689;SDS011;9782;52.930;15.562;2023-04-21T12:28:38;4.55;;;2.60;;
18689;SDS011;9782;52.930;15.562;2023-04-21T12:31:05;4.15;;;2.80;;
18689;SDS011;9782;52.930;15.562;2023-04-21T12:33:32;5.30;;;2.58;;
18689;SDS011;9782;52.930;15.562;2023-04-21T12:35:59;5.05;;;2.42;;
18689;SDS011;9782;52.930;15.562;2023-04-21T12:38:26;3.00;;;2.55;;
18689;SDS011;9782;52.930;15.562;2023-04-21T12:40:53;5.60;;;2.78;;
18689;SDS011;9782;52.930;15.562;2023-04-21T12:43:20;5.13;;;2.83;;
18689;SDS011;9782;52.930;15.562;2023-04-21T12:45:49;4.35;;;2.67;;
18689;SDS011;9782;52.930;15.562;2023-04-21T12:48:16;3.63;;;2.50;;
18689;SDS011;9782;52.930;15.562;2023-04-21T13:06:19;4.95;;;2.60;;
18689;SDS011;9782;52.930;15.562;2023-04-21T13:08:45;4.45;;;2.55;;
18689;SDS011;9782;52.930;15.562;2023-04-21T13:11:13;6.55;;;2.80;;
18689;SDS011;9782;52.930;15.562;2023-04-21T13:13:40;3.38;;;2.80;;
18689;SDS011;9782;52.930;15.562;2023-04-21T13:16:06;4.88;;;2.65;;
18689;SDS011;9782;52.930;15.562;2023-04-21T13:18:33;5.30;;;2.67;;
18689;SDS011;9782;52.930;15.562;2023-04-21T13:21:03;8.80;;;2.70;;
18689;SDS011;9782;52.930;15.562;2023-04-21T13:23:30;6.68;;;2.90;;
18689;SDS011;9782;52.930;15.562;2023-04-21T13:25:58;3.45;;;2.72;;
18689;SDS011;9782;52.930;15.562;2023-04-21T13:28:26;5.30;;;2.92;;
18689;SDS011;9782;52.930;15.562;2023-04-21T13:30:53;4.00;;;2.95;;
18689;SDS011;9782;52.930;15.562;2023-04-21T13:33:20;3.72;;;2.72;;
18689;SDS011;9782;52.930;15.562;2023-04-21T13:35:47;5.32;;;2.83;;
18689;SDS011;9782;52.930;15.562;2023-04-21T13:38:16;5.68;;;2.78;;
18689;SDS011;9782;52.930;15.562;2023-04-21T13:45:55;4.30;;;2.53;;
18689;SDS011;9782;52.930;15.562;2023-04-21T13:48:23;3.83;;;2.60;;
18689;SDS011;9782;52.930;15.562;2023-04-21T13:53:27;6.63;;;2.90;;
18689;SDS011;9782;52.930;15.562;2023-04-21T13:55:55;3.63;;;2.72;;
18689;SDS011;9782;52.930;15.562;2023-04-21T13:58:23;4.93;;;3.28;;
18689;SDS011;9782;52.930;15.562;2023-04-21T14:03:18;7.38;;;2.55;;
18689;SDS011;9782;52.930;15.562;2023-04-21T14:05:45;6.35;;;2.90;;
18689;SDS011;9782;52.930;15.562;2023-04-21T14:18:47;6.57;;;3.20;;
18689;SDS011;9782;52.930;15.562;2023-04-21T14:26:26;4.88;;;3.15;;
18689;SDS011;9782;52.930;15.562;2023-04-21T14:28:53;7.88;;;2.85;;
18689;SDS011;9782;52.930;15.562;2023-04-21T14:31:24;4.35;;;2.75;;
18689;SDS011;9782;52.930;15.562;2023-04-21T14:33:52;3.40;;;3.00;;
18689;SDS011;9782;52.930;15.562;2023-04-21T14:36:20;5.32;;;3.00;;
18689;SDS011;9782;52.930;15.562;2023-04-21T14:38:46;5.38;;;3.30;;
18689;SDS011;9782;52.930;15.562;2023-04-21T14:41:14;4.20;;;2.95;;
18689;SDS011;9782;52.930;15.562;2023-04-21T14:43:42;4.85;;;2.92;;
18689;SDS011;9782;52.930;15.562;2023-04-21T14:46:09;6.70;;;3.03;;
18689;SDS011;9782;52.930;15.562;2023-04-21T14:48:36;3.90;;;3.03;;
18689;SDS011;9782;52.930;15.562;2023-04-21T15:09:16;6.00;;;3.50;;
18689;SDS011;9782;52.930;15.562;2023-04-21T15:27:56;5.10;;;3.40;;
18689;SDS011;9782;52.930;15.562;2023-04-21T15:30:23;8.23;;;3.63;;
18689;SDS011;9782;52.930;15.562;2023-04-21T15:35:18;4.10;;;3.13;;
18689;SDS011;9782;52.930;15.562;2023-04-21T15:37:45;4.32;;;3.22;;
18689;SDS011;9782;52.930;15.562;2023-04-21T15:40:13;7.13;;;3.60;;
18689;SDS011;9782;52.930;15.562;2023-04-21T15:45:10;5.13;;;3.35;;
18689;SDS011;9782;52.930;15.562;2023-04-21T15:47:38;4.65;;;2.88;;
18689;SDS011;9782;52.930;15.562;2023-04-21T15:52:40;5.43;;;3.22;;
18689;SDS011;9782;52.930;15.562;2023-04-21T15:55:09;5.40;;;3.30;;
18689;SDS011;9782;52.930;15.562;2023-04-21T15:57:36;4.32;;;3.20;;
18689;SDS011;9782;52.930;15.562;2023-04-21T16:00:04;5.25;;;3.10;;
18689;SDS011;9782;52.930;15.562;2023-04-21T16:02:35;6.85;;;3.28;;
18689;SDS011;9782;52.930;15.562;2023-04-21T16:15:55;3.92;;;2.97;;
18689;SDS011;9782;52.930;15.562;2023-04-21T16:18:23;3.42;;;2.90;;
18689;SDS011;9782;52.930;15.562;2023-04-21T16:20:51;5.05;;;3.10;;
18689;SDS011;9782;52.930;15.562;2023-04-21T16:23:18;6.32;;;3.15;;
18689;SDS011;9782;52.930;15.562;2023-04-21T16:28:20;3.67;;;3.13;;
18689;SDS011;9782;52.930;15.562;2023-04-21T16:30:50;6.32;;;3.30;;
18689;SDS011;9782;52.930;15.562;2023-04-21T16:35:57;5.97;;;3.42;;
18689;SDS011;9782;52.930;15.562;2023-04-21T16:38:23;5.80;;;3.55;;
18689;SDS011;9782;52.930;15.562;2023-04-21T16:40:53;4.43;;;3.22;;
18689;SDS011;9782;52.930;15.562;2023-04-21T16:51:07;6.18;;;3.58;;
18689;SDS011;9782;52.930;15.562;2023-04-21T16:53:34;4.88;;;3.30;;
18689;SDS011;9782;52.930;15.562;2023-04-21T16:56:01;8.27;;;3.50;;
18689;SDS011;9782;52.930;15.562;2023-04-21T16:58:32;5.85;;;3.10;;
18689;SDS011;9782;52.930;15.562;2023-04-21T17:01:01;7.50;;;3.47;;
18689;SDS011;9782;52.930;15.562;2023-04-21T17:03:28;5.78;;;3.50;;
18689;SDS011;9782;52.930;15.562;2023-04-21T17:05:55;7.20;;;3.58;;
18689;SDS011;9782;52.930;15.562;2023-04-21T17:08:23;6.60;;;3.42;;
18689;SDS011;9782;52.930;15.562;2023-04-21T17:10:50;5.03;;;3.17;;
18689;SDS011;9782;52.930;15.562;2023-04-21T17:13:19;5.15;;;3.90;;
18689;SDS011;9782;52.930;15.562;2023-04-21T17:15:46;5.32;;;3.83;;
18689;SDS011;9782;52.930;15.562;2023-04-21T17:18:13;6.72;;;3.45;;
18689;SDS011;9782;52.930;15.562;2023-04-21T17:20:39;5.43;;;3.28;;
18689;SDS011;9782;52.930;15.562;2023-04-21T17:23:06;5.15;;;3.17;;
18689;SDS011;9782;52.930;15.562;2023-04-21T17:25:35;6.93;;;3.47;;
18689;SDS011;9782;52.930;15.562;2023-04-21T17:28:02;4.75;;;3.70;;
18689;SDS011;9782;52.930;15.562;2023-04-21T17:30:29;7.28;;;3.67;;
18689;SDS011;9782;52.930;15.562;2023-04-21T17:32:56;4.90;;;3.45;;
18689;SDS011;9782;52.930;15.562;2023-04-21T17:35:22;8.35;;;3.30;;
18689;SDS011;9782;52.930;15.562;2023-04-21T17:37:49;5.65;;;4.03;;
18689;SDS011;9782;52.930;15.562;2023-04-21T17:40:16;5.00;;;3.63;;
18689;SDS011;9782;52.930;15.562;2023-04-21T17:42:44;4.82;;;3.90;;
18689;SDS011;9782;52.930;15.562;2023-04-21T17:45:11;3.97;;;3.50;;
18689;SDS011;9782;52.930;15.562;2023-04-21T17:47:38;7.15;;;3.75;;
18689;SDS011;9782;52.930;15.562;2023-04-21T17:50:05;6.70;;;4.07;;
18689;SDS011;9782;52.930;15.562;2023-04-21T17:52:33;4.63;;;3.33;;
18689;SDS011;9782;52.930;15.562;2023-04-21T17:55:00;5.50;;;3.33;;
18689;SDS011;9782;52.930;15.562;2023-04-21T17:57:27;6.60;;;3.65;;
18689;SDS011;9782;52.930;15.562;2023-04-21T17:59:56;5.63;;;3.90;;
18689;SDS011;9782;52.930;15.562;2023-04-21T18:02:23;10.13;;;3.60;;
18689;SDS011;9782;52.930;15.562;2023-04-21T18:04:49;4.57;;;3.72;;
18689;SDS011;9782;52.930;15.562;2023-04-21T18:07:16;5.20;;;3.85;;
18689;SDS011;9782;52.930;15.562;2023-04-21T18:09:44;5.30;;;3.95;;
18689;SDS011;9782;52.930;15.562;2023-04-21T18:12:12;5.07;;;3.72;;
18689;SDS011;9782;52.930;15.562;2023-04-21T18:14:40;5.22;;;4.07;;
18689;SDS011;9782;52.930;15.562;2023-04-21T18:17:08;6.25;;;4.22;;
18689;SDS011;9782;52.930;15.562;2023-04-21T18:19:35;6.68;;;4.57;;
18689;SDS011;9782;52.930;15.562;2023-04-21T18:22:01;5.87;;;4.47;;
18689;SDS011;9782;52.930;15.562;2023-04-21T18:24:28;6.55;;;4.10;;
18689;SDS011;9782;52.930;15.562;2023-04-21T18:26:55;5.60;;;4.10;;
18689;SDS011;9782;52.930;15.562;2023-04-21T18:29:22;7.13;;;4.03;;
18689;SDS011;9782;52.930;15.562;2023-04-21T18:31:49;5.67;;;4.30;;
18689;SDS011;9782;52.930;15.562;2023-04-21T18:34:17;5.83;;;4.10;;
18689;SDS011;9782;52.930;15.562;2023-04-21T18:36:44;7.53;;;4.57;;
18689;SDS011;9782;52.930;15.562;2023-04-21T18:39:12;5.70;;;4.20;;
18689;SDS011;9782;52.930;15.562;2023-04-21T18:41:39;4.53;;;4.00;;
18689;SDS011;9782;52.930;15.562;2023-04-21T18:44:07;5.57;;;3.80;;
18689;SDS011;9782;52.930;15.562;2023-04-21T18:46:33;4.83;;;4.10;;
18689;SDS011;9782;52.930;15.562;2023-04-21T18:49:00;6.97;;;4.40;;
18689;SDS011;9782;52.930;15.562;2023-04-21T18:51:28;5.53;;;4.47;;
18689;SDS011;9782;52.930;15.562;2023-04-21T18:53:56;6.03;;;4.40;;
18689;SDS011;9782;52.930;15.562;2023-04-21T18:56:23;7.03;;;4.40;;
18689;SDS011;9782;52.930;15.562;2023-04-21T18:58:50;5.77;;;4.20;;
18689;SDS011;9782;52.930;15.562;2023-04-21T19:01:17;7.17;;;5.07;;
18689;SDS011;9782;52.930;15.562;2023-04-21T19:03:44;8.83;;;5.07;;
18689;SDS011;9782;52.930;15.562;2023-04-21T19:06:11;6.90;;;4.67;;
18689;SDS011;9782;52.930;15.562;2023-04-21T19:08:39;7.40;;;4.37;;
18689;SDS011;9782;52.930;15.562;2023-04-21T19:11:06;5.80;;;4.10;;
18689;SDS011;9782;52.930;15.562;2023-04-21T19:13:34;5.30;;;4.70;;
18689;SDS011;9782;52.930;15.562;2023-04-21T19:16:00;8.07;;;4.73;;
18689;SDS011;9782;52.930;15.562;2023-04-21T19:18:28;10.93;;;4.70;;
18689;SDS011;9782;52.930;15.562;2023-04-21T19:20:55;5.90;;;4.27;;
18689;SDS011;9782;52.930;15.562;2023-04-21T19:23:22;7.27;;;4.57;;
18689;SDS011;9782;52.930;15.562;2023-04-21T19:25:50;6.30;;;4.13;;
18689;SDS011;9782;52.930;15.562;2023-04-21T19:28:19;5.00;;;4.40;;
18689;SDS011;9782;52.930;15.562;2023-04-21T19:30:45;7.63;;;4.77;;
18689;SDS011;9782;52.930;15.562;2023-04-21T19:33:13;5.53;;;4.30;;
18689;SDS011;9782;52.930;15.562;2023-04-21T19:35:40;6.40;;;4.80;;
18689;SDS011;9782;52.930;15.562;2023-04-21T19:38:07;8.90;;;4.77;;
18689;SDS011;9782;52.930;15.562;2023-04-21T19:40:34;8.47;;;5.00;;
18689;SDS011;9782;52.930;15.562;2023-04-21T19:43:02;10.03;;;4.93;;
18689;SDS011;9782;52.930;15.562;2023-04-21T19:45:29;9.60;;;5.23;;
